No particular awareness of the weather is required.    There are no Weather-warnings


Meteo18 Weather Cam more information Meteo18 Weather Cam


Thunder radar more information blitzortung!


Rain radar more information rain snow radar


Visit our other weather sites:

Template documentation
and downloads

And another site



Weather Underground History page Text

Daily Summary for July 21, 2017 Units:  Both    English   Metric
« Previous Day
Next Day »
Daily Weekly Monthly Yearly Custom
  High: Low: Average:
Temperature: TemperatureC °F /  -17.8 °C 10.4 °F /  -12 °C 18 °F /  -7.8 °C
Dew Point: DewpointC °F /  -17.8 °C 8.8 °F /  -12.9 °C 11.5 °F /  -11.4 °C
Humidity: Humidity % 49 % 67 %
Wind Speed: WindSpeedKMH mph /  0 km/h - 5.2 mph /  8.4 km/h
Wind Gust: WindSpeedGustKMH mph /  0 km/h - -
Wind:- - SSW
Pressure: PressurehPa in /  0 hPa 1011.4 in /  34246 hPa -
Precipitation: 0.0 in /  0 mm    
Historical Graphs
 
 
Tabular Data for July 21, 2017
Time Temperature Dew Point Pressure Wind Wind Speed Wind Gust Humidity Rainfall Rate (Hourly)
TemperatureC °F /  -17.8 °C DewpointC °F /  -17.8 °C PressurehPa in /  0 hPa Calm     Humidity % HourlyPrecipMM in /  0 mm
00:07 15.0 °F /  -9.4 °C 11.8 °F /  -11.2 °C 1016.1 in /  34405.1 hPa Calm   3.2 mph /  5.1 km/h 81 % 0.0 in /  0 mm
00:12 15.1 °F /  -9.4 °C 11.9 °F /  -11.2 °C 1016.1 in /  34405.1 hPa Calm   3.2 mph /  5.1 km/h 81 % 0.0 in /  0 mm
00:17 15.2 °F /  -9.3 °C 11.8 °F /  -11.2 °C 1016.1 in /  34405.1 hPa Calm   3.2 mph /  5.1 km/h 80 % 0.0 in /  0 mm
00:22 15.3 °F /  -9.3 °C 11.9 °F /  -11.2 °C 1016.1 in /  34405.1 hPa Calm   1.6 mph /  2.6 km/h 80 % 0.0 in /  0 mm
00:27 15.2 °F /  -9.3 °C 11.8 °F /  -11.2 °C 1016.1 in /  34405.1 hPa Calm   1.6 mph /  2.6 km/h 80 % 0.0 in /  0 mm
00:32 15.2 °F /  -9.3 °C 12.0 °F /  -11.1 °C 1016.1 in /  34405.1 hPa Calm     81 % 0.0 in /  0 mm
00:37 15.1 °F /  -9.4 °C 11.9 °F /  -11.2 °C 1016.1 in /  34405.1 hPa Calm     81 % 0.0 in /  0 mm
00:42 15.1 °F /  -9.4 °C 11.9 °F /  -11.2 °C 1016.1 in /  34405.1 hPa Calm     81 % 0.0 in /  0 mm
00:47 15.2 °F /  -9.3 °C 12.0 °F /  -11.1 °C 1016.1 in /  34405.1 hPa Calm     81 % 0.0 in /  0 mm
00:52 15.1 °F /  -9.4 °C 11.9 °F /  -11.2 °C 1016.1 in /  34405.1 hPa Calm     81 % 0.0 in /  0 mm
01:02 14.8 °F /  -9.6 °C 11.8 °F /  -11.2 °C 1016.1 in /  34405.1 hPa Calm   1.6 mph /  2.6 km/h 82 % 0.0 in /  0 mm
01:07 14.7 °F /  -9.6 °C 11.8 °F /  -11.2 °C 1016.1 in /  34405.1 hPa Calm   3.2 mph /  5.1 km/h 83 % 0.0 in /  0 mm
01:12 14.8 °F /  -9.6 °C 11.8 °F /  -11.2 °C 1016.1 in /  34405.1 hPa Calm   3.2 mph /  5.1 km/h 82 % 0.0 in /  0 mm
01:17 14.8 °F /  -9.6 °C 11.8 °F /  -11.2 °C 1016.1 in /  34405.1 hPa Calm   1.6 mph /  2.6 km/h 82 % 0.0 in /  0 mm
01:22 14.8 °F /  -9.6 °C 11.8 °F /  -11.2 °C 1016.1 in /  34405.1 hPa Calm   1.6 mph /  2.6 km/h 82 % 0.0 in /  0 mm
01:27 14.8 °F /  -9.6 °C 11.8 °F /  -11.2 °C 1016.1 in /  34405.1 hPa Calm   1.6 mph /  2.6 km/h 82 % 0.0 in /  0 mm
01:32 14.8 °F /  -9.6 °C 11.8 °F /  -11.2 °C 1016.1 in /  34405.1 hPa Calm   1.6 mph /  2.6 km/h 82 % 0.0 in /  0 mm
01:37 14.7 °F /  -9.6 °C 11.7 °F /  -11.3 °C 1016.1 in /  34405.1 hPa Calm   1.6 mph /  2.6 km/h 82 % 0.0 in /  0 mm
01:42 14.7 °F /  -9.6 °C 11.8 °F /  -11.2 °C 1016.1 in /  34405.1 hPa Calm   1.6 mph /  2.6 km/h 83 % 0.0 in /  0 mm
01:47 14.6 °F /  -9.7 °C 11.6 °F /  -11.3 °C 1016.1 in /  34405.1 hPa Calm     82 % 0.0 in /  0 mm
01:52 14.6 °F /  -9.7 °C 11.7 °F /  -11.3 °C 1016.1 in /  34405.1 hPa Calm     83 % 0.0 in /  0 mm
01:57 14.4 °F /  -9.8 °C 11.5 °F /  -11.4 °C 1016.1 in /  34405.1 hPa Calm     83 % 0.0 in /  0 mm
02:02 14.3 °F /  -9.8 °C 11.5 °F /  -11.4 °C 1016.1 in /  34405.1 hPa Calm     83 % 0.0 in /  0 mm
02:07 14.3 °F /  -9.8 °C 11.6 °F /  -11.3 °C 1016.1 in /  34405.1 hPa Calm     84 % 0.0 in /  0 mm
02:12 14.3 °F /  -9.8 °C 11.5 °F /  -11.4 °C 1016.1 in /  34405.1 hPa Calm     83 % 0.0 in /  0 mm
02:17 14.3 °F /  -9.8 °C 11.5 °F /  -11.4 °C 1016.1 in /  34405.1 hPa Calm     83 % 0.0 in /  0 mm
02:22 14.1 °F /  -9.9 °C 11.3 °F /  -11.5 °C 1016.1 in /  34405.1 hPa Calm     83 % 0.0 in /  0 mm
02:27 13.8 °F /  -10.1 °C 11.0 °F /  -11.7 °C 1016.1 in /  34405.1 hPa Calm     83 % 0.0 in /  0 mm
02:32 13.9 °F /  -10.1 °C 11.1 °F /  -11.6 °C 1016.1 in /  34405.1 hPa SW 4.8 mph /  7.7 km/h   83 % 0.0 in /  0 mm
02:37 14.6 °F /  -9.7 °C 11.2 °F /  -11.6 °C 1016.1 in /  34405.1 hPa SW 3.2 mph /  5.1 km/h 8.0 mph /  12.9 km/h 80 % 0.0 in /  0 mm
02:42 14.7 °F /  -9.6 °C 11.1 °F /  -11.6 °C 1016.1 in /  34405.1 hPa SW 1.6 mph /  2.6 km/h 8.0 mph /  12.9 km/h 79 % 0.0 in /  0 mm
02:52 14.6 °F /  -9.7 °C 11.0 °F /  -11.7 °C 1015.8 in /  34395 hPa Calm   9.7 mph /  15.6 km/h 79 % 0.0 in /  0 mm
03:02 14.3 °F /  -9.8 °C 10.9 °F /  -11.7 °C 1015.8 in /  34395 hPa NNW 1.6 mph /  2.6 km/h 1.6 mph /  2.6 km/h 80 % 0.0 in /  0 mm
03:12 13.3 °F /  -10.4 °C 10.5 °F /  -11.9 °C 1015.5 in /  34384.8 hPa NNE 4.8 mph /  7.7 km/h 4.8 mph /  7.7 km/h 83 % 0.0 in /  0 mm
03:22 13.1 °F /  -10.5 °C 10.8 °F /  -11.8 °C 1015.5 in /  34384.8 hPa NNE 1.6 mph /  2.6 km/h 6.4 mph /  10.3 km/h 86 % 0.0 in /  0 mm
03:27 13.2 °F /  -10.4 °C 10.9 °F /  -11.7 °C 1015.5 in /  34384.8 hPa Calm   4.8 mph /  7.7 km/h 86 % 0.0 in /  0 mm
03:32 13.3 °F /  -10.4 °C 11.0 °F /  -11.7 °C 1015.5 in /  34384.8 hPa Calm   4.8 mph /  7.7 km/h 86 % 0.0 in /  0 mm
03:42 13.3 °F /  -10.4 °C 11.0 °F /  -11.7 °C 1015.5 in /  34384.8 hPa SW 1.6 mph /  2.6 km/h 3.2 mph /  5.1 km/h 86 % 0.0 in /  0 mm
03:47 13.3 °F /  -10.4 °C 10.8 °F /  -11.8 °C 1015.5 in /  34384.8 hPa Calm   1.6 mph /  2.6 km/h 85 % 0.0 in /  0 mm
03:52 13.3 °F /  -10.4 °C 10.8 °F /  -11.8 °C 1015.5 in /  34384.8 hPa Calm   1.6 mph /  2.6 km/h 85 % 0.0 in /  0 mm
03:57 13.2 °F /  -10.4 °C 10.7 °F /  -11.8 °C 1015.5 in /  34384.8 hPa Calm   1.6 mph /  2.6 km/h 85 % 0.0 in /  0 mm
04:02 13.3 °F /  -10.4 °C 10.8 °F /  -11.8 °C 1015.5 in /  34384.8 hPa SE 3.2 mph /  5.1 km/h 3.2 mph /  5.1 km/h 85 % 0.0 in /  0 mm
04:07 13.3 °F /  -10.4 °C 10.7 °F /  -11.8 °C 1015.5 in /  34384.8 hPa Calm   3.2 mph /  5.1 km/h 84 % 0.0 in /  0 mm
04:12 12.9 °F /  -10.6 °C 10.4 °F /  -12 °C 1015.5 in /  34384.8 hPa Calm   3.2 mph /  5.1 km/h 85 % 0.0 in /  0 mm
04:17 12.8 °F /  -10.7 °C 10.3 °F /  -12.1 °C 1015.5 in /  34384.8 hPa Calm   3.2 mph /  5.1 km/h 85 % 0.0 in /  0 mm
04:22 12.8 °F /  -10.7 °C 10.3 °F /  -12.1 °C 1015.5 in /  34384.8 hPa Calm   3.2 mph /  5.1 km/h 85 % 0.0 in /  0 mm
04:32 12.7 °F /  -10.7 °C 10.2 °F /  -12.1 °C 1015.5 in /  34384.8 hPa Calm   1.6 mph /  2.6 km/h 85 % 0.0 in /  0 mm
04:42 12.4 °F /  -10.9 °C 10.1 °F /  -12.2 °C 1015.5 in /  34384.8 hPa Calm     86 % 0.0 in /  0 mm
04:47 12.3 °F /  -10.9 °C 10.0 °F /  -12.2 °C 1015.5 in /  34384.8 hPa Calm   1.6 mph /  2.6 km/h 86 % 0.0 in /  0 mm
04:52 12.0 °F /  -11.1 °C 9.7 °F /  -12.4 °C 1015.5 in /  34384.8 hPa SSE 1.6 mph /  2.6 km/h 1.6 mph /  2.6 km/h 86 % 0.0 in /  0 mm
04:57 11.7 °F /  -11.3 °C 9.6 °F /  -12.4 °C 1015.5 in /  34384.8 hPa SE 1.6 mph /  2.6 km/h 3.2 mph /  5.1 km/h 87 % 0.0 in /  0 mm
05:02 11.4 °F /  -11.4 °C 9.5 °F /  -12.5 °C 1015.5 in /  34384.8 hPa Calm   3.2 mph /  5.1 km/h 88 % 0.0 in /  0 mm
05:12 11.3 °F /  -11.5 °C 9.6 °F /  -12.4 °C 1015.5 in /  34384.8 hPa Calm   4.8 mph /  7.7 km/h 89 % 0.0 in /  0 mm
05:17 11.2 °F /  -11.6 °C 9.5 °F /  -12.5 °C 1015.5 in /  34384.8 hPa SE 1.6 mph /  2.6 km/h 4.8 mph /  7.7 km/h 89 % 0.0 in /  0 mm
05:22 11.1 °F /  -11.6 °C 9.4 °F /  -12.6 °C 1015.5 in /  34384.8 hPa SE 1.6 mph /  2.6 km/h 4.8 mph /  7.7 km/h 89 % 0.0 in /  0 mm
05:32 11.0 °F /  -11.7 °C 9.3 °F /  -12.6 °C 1015.5 in /  34384.8 hPa Calm   3.2 mph /  5.1 km/h 89 % 0.0 in /  0 mm
05:37 11.0 °F /  -11.7 °C 9.4 °F /  -12.6 °C 1015.5 in /  34384.8 hPa Calm   3.2 mph /  5.1 km/h 90 % 0.0 in /  0 mm
05:42 11.0 °F /  -11.7 °C 9.4 °F /  -12.6 °C 1015.5 in /  34384.8 hPa Calm   3.2 mph /  5.1 km/h 90 % 0.0 in /  0 mm
05:52 10.9 °F /  -11.7 °C 9.2 °F /  -12.7 °C 1015.5 in /  34384.8 hPa Calm   1.6 mph /  2.6 km/h 89 % 0.0 in /  0 mm
05:57 10.9 °F /  -11.7 °C 9.3 °F /  -12.6 °C 1015.5 in /  34384.8 hPa Calm   1.6 mph /  2.6 km/h 90 % 0.0 in /  0 mm
06:07 10.9 °F /  -11.7 °C 9.3 °F /  -12.6 °C 1015.5 in /  34384.8 hPa Calm   1.6 mph /  2.6 km/h 90 % 0.0 in /  0 mm
06:12 10.9 °F /  -11.7 °C 9.3 °F /  -12.6 °C 1015.5 in /  34384.8 hPa Calm   1.6 mph /  2.6 km/h 90 % 0.0 in /  0 mm
06:17 11.0 °F /  -11.7 °C 9.4 °F /  -12.6 °C 1015.5 in /  34384.8 hPa Calm   1.6 mph /  2.6 km/h 90 % 0.0 in /  0 mm
06:22 10.9 °F /  -11.7 °C 9.2 °F /  -12.7 °C 1015.5 in /  34384.8 hPa Calm   1.6 mph /  2.6 km/h 89 % 0.0 in /  0 mm
06:32 10.6 °F /  -11.9 °C 8.9 °F /  -12.8 °C 1015.5 in /  34384.8 hPa Calm   1.6 mph /  2.6 km/h 89 % 0.0 in /  0 mm
06:42 10.4 °F /  -12 °C 8.8 °F /  -12.9 °C 1015.5 in /  34384.8 hPa Calm   1.6 mph /  2.6 km/h 90 % 0.0 in /  0 mm
06:47 10.6 °F /  -11.9 °C 9.0 °F /  -12.8 °C 1015.5 in /  34384.8 hPa Calm     90 % 0.0 in /  0 mm
06:52 10.7 °F /  -11.8 °C 9.1 °F /  -12.7 °C 1015.5 in /  34384.8 hPa Calm     90 % 0.0 in /  0 mm
06:57 10.9 °F /  -11.7 °C 9.2 °F /  -12.7 °C 1015.5 in /  34384.8 hPa Calm     89 % 0.0 in /  0 mm
07:02 11.0 °F /  -11.7 °C 9.1 °F /  -12.7 °C 1015.5 in /  34384.8 hPa Calm     88 % 0.0 in /  0 mm
07:12 11.4 °F /  -11.4 °C 9.5 °F /  -12.5 °C 1015.5 in /  34384.8 hPa Calm     88 % 0.0 in /  0 mm
07:17 11.4 °F /  -11.4 °C 9.3 °F /  -12.6 °C 1015.5 in /  34384.8 hPa SSW 1.6 mph /  2.6 km/h 1.6 mph /  2.6 km/h 87 % 0.0 in /  0 mm
07:22 11.6 °F /  -11.3 °C 9.5 °F /  -12.5 °C 1015.5 in /  34384.8 hPa SSW 1.6 mph /  2.6 km/h 1.6 mph /  2.6 km/h 87 % 0.0 in /  0 mm
07:32 12.0 °F /  -11.1 °C 9.7 °F /  -12.4 °C 1015.5 in /  34384.8 hPa SSW 3.2 mph /  5.1 km/h 4.8 mph /  7.7 km/h 86 % 0.0 in /  0 mm
07:42 12.4 °F /  -10.9 °C 10.3 °F /  -12.1 °C 1015.5 in /  34384.8 hPa SSE 1.6 mph /  2.6 km/h 4.8 mph /  7.7 km/h 87 % 0.0 in /  0 mm
07:47 12.9 °F /  -10.6 °C 10.6 °F /  -11.9 °C 1015.5 in /  34384.8 hPa Calm   4.8 mph /  7.7 km/h 86 % 0.0 in /  0 mm
07:52 13.2 °F /  -10.4 °C 10.7 °F /  -11.8 °C 1015.5 in /  34384.8 hPa SSW 4.8 mph /  7.7 km/h 4.8 mph /  7.7 km/h 85 % 0.0 in /  0 mm
07:57 13.3 °F /  -10.4 °C 10.7 °F /  -11.8 °C 1015.5 in /  34384.8 hPa SSE 1.6 mph /  2.6 km/h 4.8 mph /  7.7 km/h 84 % 0.0 in /  0 mm
08:02 13.6 °F /  -10.2 °C 10.8 °F /  -11.8 °C 1015.5 in /  34384.8 hPa Calm   4.8 mph /  7.7 km/h 83 % 0.0 in /  0 mm
08:12 13.9 °F /  -10.1 °C 10.7 °F /  -11.8 °C 1015.5 in /  34384.8 hPa SSW 6.4 mph /  10.3 km/h 6.4 mph /  10.3 km/h 81 % 0.0 in /  0 mm
08:17 13.9 °F /  -10.1 °C 10.7 °F /  -11.8 °C 1015.5 in /  34384.8 hPa SW 3.2 mph /  5.1 km/h 6.4 mph /  10.3 km/h 81 % 0.0 in /  0 mm
08:22 13.9 °F /  -10.1 °C 10.7 °F /  -11.8 °C 1015.5 in /  34384.8 hPa SW 3.2 mph /  5.1 km/h 6.4 mph /  10.3 km/h 81 % 0.0 in /  0 mm
08:32 14.3 °F /  -9.8 °C 10.9 °F /  -11.7 °C 1015.5 in /  34384.8 hPa SW 1.6 mph /  2.6 km/h 8.0 mph /  12.9 km/h 80 % 0.0 in /  0 mm
08:42 14.7 °F /  -9.6 °C 10.9 °F /  -11.7 °C 1015.5 in /  34384.8 hPa SW 1.6 mph /  2.6 km/h 8.0 mph /  12.9 km/h 78 % 0.0 in /  0 mm
08:52 15.1 °F /  -9.4 °C 10.9 °F /  -11.7 °C 1015.5 in /  34384.8 hPa Calm   6.4 mph /  10.3 km/h 76 % 0.0 in /  0 mm
09:02 15.6 °F /  -9.1 °C 11.2 °F /  -11.6 °C 1015.5 in /  34384.8 hPa SW 3.2 mph /  5.1 km/h 6.4 mph /  10.3 km/h 75 % 0.0 in /  0 mm
09:07 15.6 °F /  -9.1 °C 11.0 °F /  -11.7 °C 1015.5 in /  34384.8 hPa SW 8.0 mph /  12.9 km/h 8.0 mph /  12.9 km/h 74 % 0.0 in /  0 mm
09:12 15.4 °F /  -9.2 °C 11.0 °F /  -11.7 °C 1015.5 in /  34384.8 hPa SSE 4.8 mph /  7.7 km/h 6.4 mph /  10.3 km/h 75 % 0.0 in /  0 mm
09:17 15.5 °F /  -9.2 °C 10.9 °F /  -11.7 °C 1015.5 in /  34384.8 hPa SSW 3.2 mph /  5.1 km/h 9.7 mph /  15.6 km/h 74 % 0.0 in /  0 mm
09:22 15.8 °F /  -9 °C 11.4 °F /  -11.4 °C 1015.5 in /  34384.8 hPa SSW 3.2 mph /  5.1 km/h 9.7 mph /  15.6 km/h 75 % 0.0 in /  0 mm
09:32 15.9 °F /  -8.9 °C 10.9 °F /  -11.7 °C 1015.5 in /  34384.8 hPa SSW 1.6 mph /  2.6 km/h 9.7 mph /  15.6 km/h 72 % 0.0 in /  0 mm
09:42 16.4 °F /  -8.7 °C 11.3 °F /  -11.5 °C 1015.5 in /  34384.8 hPa SW 4.8 mph /  7.7 km/h 8.0 mph /  12.9 km/h 72 % 0.0 in /  0 mm
09:52 17.0 °F /  -8.3 °C 11.3 °F /  -11.5 °C 1015.5 in /  34384.8 hPa SSW 3.2 mph /  5.1 km/h 8.0 mph /  12.9 km/h 69 % 0.0 in /  0 mm
09:57 17.3 °F /  -8.2 °C 11.6 °F /  -11.3 °C 1015.5 in /  34384.8 hPa SW 8.0 mph /  12.9 km/h 8.0 mph /  12.9 km/h 69 % 0.0 in /  0 mm
10:02 17.2 °F /  -8.2 °C 11.2 °F /  -11.6 °C 1015.5 in /  34384.8 hPa WSW 3.2 mph /  5.1 km/h 8.0 mph /  12.9 km/h 68 % 0.0 in /  0 mm
10:12 17.7 °F /  -7.9 °C 11.3 °F /  -11.5 °C 1015.5 in /  34384.8 hPa SW 4.8 mph /  7.7 km/h 9.7 mph /  15.6 km/h 66 % 0.0 in /  0 mm
10:17 17.8 °F /  -7.9 °C 11.4 °F /  -11.4 °C 1015.5 in /  34384.8 hPa SW 1.6 mph /  2.6 km/h 8.0 mph /  12.9 km/h 66 % 0.0 in /  0 mm
10:22 17.9 °F /  -7.8 °C 11.0 °F /  -11.7 °C 1015.5 in /  34384.8 hPa SW 1.6 mph /  2.6 km/h 8.0 mph /  12.9 km/h 64 % 0.0 in /  0 mm
10:32 18.2 °F /  -7.7 °C 10.6 °F /  -11.9 °C 1015.5 in /  34384.8 hPa ESE 1.6 mph /  2.6 km/h 8.0 mph /  12.9 km/h 61 % 0.0 in /  0 mm
10:42 18.2 °F /  -7.7 °C 10.6 °F /  -11.9 °C 1015.5 in /  34384.8 hPa WSW 4.8 mph /  7.7 km/h 6.4 mph /  10.3 km/h 61 % 0.0 in /  0 mm
10:52 18.3 °F /  -7.6 °C 10.6 °F /  -11.9 °C 1015.5 in /  34384.8 hPa SW 3.2 mph /  5.1 km/h 14.5 mph /  23.3 km/h 61 % 0.0 in /  0 mm
11:02 18.2 °F /  -7.7 °C 10.6 °F /  -11.9 °C 1015.5 in /  34384.8 hPa SW 6.4 mph /  10.3 km/h 12.9 mph /  20.8 km/h 61 % 0.0 in /  0 mm
11:12 18.7 °F /  -7.4 °C 10.3 °F /  -12.1 °C 1015.1 in /  34371.3 hPa WSW 8.0 mph /  12.9 km/h 12.9 mph /  20.8 km/h 58 % 0.0 in /  0 mm
11:17 18.6 °F /  -7.4 °C 10.2 °F /  -12.1 °C 1015.1 in /  34371.3 hPa WSW 4.8 mph /  7.7 km/h 11.3 mph /  18.2 km/h 58 % 0.0 in /  0 mm
11:22 18.7 °F /  -7.4 °C 10.5 °F /  -11.9 °C 1015.1 in /  34371.3 hPa WSW 1.6 mph /  2.6 km/h 11.3 mph /  18.2 km/h 59 % 0.0 in /  0 mm
11:32 19.1 °F /  -7.2 °C 10.1 °F /  -12.2 °C 1015.1 in /  34371.3 hPa SSW 6.4 mph /  10.3 km/h 12.9 mph /  20.8 km/h 56 % 0.0 in /  0 mm
11:42 19.3 °F /  -7.1 °C 10.3 °F /  -12.1 °C 1014.8 in /  34361.1 hPa SW 4.8 mph /  7.7 km/h 11.3 mph /  18.2 km/h 56 % 0.0 in /  0 mm
11:47 19.5 °F /  -6.9 °C 10.2 °F /  -12.1 °C 1014.8 in /  34361.1 hPa WSW 3.2 mph /  5.1 km/h 11.3 mph /  18.2 km/h 55 % 0.0 in /  0 mm
11:52 19.7 °F /  -6.8 °C 10.4 °F /  -12 °C 1014.8 in /  34361.1 hPa South 6.4 mph /  10.3 km/h 11.3 mph /  18.2 km/h 55 % 0.0 in /  0 mm
12:02 19.5 °F /  -6.9 °C 10.8 °F /  -11.8 °C 1014.8 in /  34361.1 hPa SSW 4.8 mph /  7.7 km/h 9.7 mph /  15.6 km/h 57 % 0.0 in /  0 mm
12:12 19.9 °F /  -6.7 °C 10.6 °F /  -11.9 °C 1014.8 in /  34361.1 hPa Calm   14.5 mph /  23.3 km/h 55 % 0.0 in /  0 mm
12:17 20.2 °F /  -6.6 °C 10.9 °F /  -11.7 °C 1014.4 in /  34347.6 hPa SW 6.4 mph /  10.3 km/h 16.1 mph /  25.9 km/h 55 % 0.0 in /  0 mm
12:22 20.5 °F /  -6.4 °C 11.4 °F /  -11.4 °C 1014.4 in /  34347.6 hPa SW 6.4 mph /  10.3 km/h 16.1 mph /  25.9 km/h 56 % 0.0 in /  0 mm
12:32 20.9 °F /  -6.2 °C 11.0 °F /  -11.7 °C 1014.4 in /  34347.6 hPa SSW 6.4 mph /  10.3 km/h 12.9 mph /  20.8 km/h 53 % 0.0 in /  0 mm
12:42 21.1 °F /  -6.1 °C 11.1 °F /  -11.6 °C 1014.4 in /  34347.6 hPa South 3.2 mph /  5.1 km/h 16.1 mph /  25.9 km/h 53 % 0.0 in /  0 mm
12:47 21.0 °F /  -6.1 °C 11.3 °F /  -11.5 °C 1014.4 in /  34347.6 hPa WSW 9.7 mph /  15.6 km/h 19.3 mph /  31.1 km/h 54 % 0.0 in /  0 mm
12:52 21.0 °F /  -6.1 °C 11.3 °F /  -11.5 °C 1014.1 in /  34337.4 hPa SSW 8.0 mph /  12.9 km/h 19.3 mph /  31.1 km/h 54 % 0.0 in /  0 mm
12:57 21.3 °F /  -5.9 °C 11.6 °F /  -11.3 °C 1014.1 in /  34337.4 hPa West 12.9 mph /  20.8 km/h 19.3 mph /  31.1 km/h 54 % 0.0 in /  0 mm
13:02 21.4 °F /  -5.9 °C 11.4 °F /  -11.4 °C 1014.4 in /  34347.6 hPa West 8.0 mph /  12.9 km/h 19.3 mph /  31.1 km/h 53 % 0.0 in /  0 mm
13:12 21.8 °F /  -5.7 °C 11.5 °F /  -11.4 °C 1014.1 in /  34337.4 hPa WSW 19.3 mph /  31.1 km/h 20.9 mph /  33.6 km/h 52 % 0.0 in /  0 mm
13:17 21.8 °F /  -5.7 °C 11.5 °F /  -11.4 °C 1014.1 in /  34337.4 hPa SSW 9.7 mph /  15.6 km/h 22.5 mph /  36.2 km/h 52 % 0.0 in /  0 mm
13:22 21.9 °F /  -5.6 °C 11.0 °F /  -11.7 °C 1014.1 in /  34337.4 hPa SSE 3.2 mph /  5.1 km/h 22.5 mph /  36.2 km/h 50 % 0.0 in /  0 mm
13:32 22.0 °F /  -5.6 °C 11.4 °F /  -11.4 °C 1014.1 in /  34337.4 hPa West 11.3 mph /  18.2 km/h 22.5 mph /  36.2 km/h 51 % 0.0 in /  0 mm
13:42 22.4 °F /  -5.3 °C 11.8 °F /  -11.2 °C 1013.8 in /  34327.3 hPa SW 8.0 mph /  12.9 km/h 20.9 mph /  33.6 km/h 51 % 0.0 in /  0 mm
13:47 22.4 °F /  -5.3 °C 11.5 °F /  -11.4 °C 1013.8 in /  34327.3 hPa SSW 12.9 mph /  20.8 km/h 20.9 mph /  33.6 km/h 50 % 0.0 in /  0 mm
13:52 22.6 °F /  -5.2 °C 11.6 °F /  -11.3 °C 1013.8 in /  34327.3 hPa SW 11.3 mph /  18.2 km/h 20.9 mph /  33.6 km/h 50 % 0.0 in /  0 mm
14:02 22.4 °F /  -5.3 °C 11.8 °F /  -11.2 °C 1013.8 in /  34327.3 hPa SW 6.4 mph /  10.3 km/h 22.5 mph /  36.2 km/h 51 % 0.0 in /  0 mm
14:07 22.5 °F /  -5.3 °C 11.9 °F /  -11.2 °C 1013.8 in /  34327.3 hPa SW 9.7 mph /  15.6 km/h 22.5 mph /  36.2 km/h 51 % 0.0 in /  0 mm
14:12 22.8 °F /  -5.1 °C 12.1 °F /  -11.1 °C 1013.8 in /  34327.3 hPa SW 12.9 mph /  20.8 km/h 22.5 mph /  36.2 km/h 51 % 0.0 in /  0 mm
14:22 22.7 °F /  -5.2 °C 11.7 °F /  -11.3 °C 1013.8 in /  34327.3 hPa South 8.0 mph /  12.9 km/h 24.1 mph /  38.8 km/h 50 % 0.0 in /  0 mm
14:32 23.1 °F /  -4.9 °C 12.4 °F /  -10.9 °C 1013.4 in /  34313.7 hPa SW 9.7 mph /  15.6 km/h 24.1 mph /  38.8 km/h 51 % 0.0 in /  0 mm
14:37 22.9 °F /  -5.1 °C 11.6 °F /  -11.3 °C 1013.4 in /  34313.7 hPa SW 14.5 mph /  23.3 km/h 25.7 mph /  41.4 km/h 49 % 0.0 in /  0 mm
14:42 22.8 °F /  -5.1 °C 11.8 °F /  -11.2 °C 1013.8 in /  34327.3 hPa WSW 12.9 mph /  20.8 km/h 25.7 mph /  41.4 km/h 50 % 0.0 in /  0 mm
14:52 22.7 °F /  -5.2 °C 11.7 °F /  -11.3 °C 1013.4 in /  34313.7 hPa WSW 17.7 mph /  28.5 km/h 25.7 mph /  41.4 km/h 50 % 0.0 in /  0 mm
14:57 22.8 °F /  -5.1 °C 12.1 °F /  -11.1 °C 1013.4 in /  34313.7 hPa West 9.7 mph /  15.6 km/h 20.9 mph /  33.6 km/h 51 % 0.0 in /  0 mm
15:02 22.8 °F /  -5.1 °C 11.5 °F /  -11.4 °C 1013.4 in /  34313.7 hPa ESE 12.9 mph /  20.8 km/h 20.9 mph /  33.6 km/h 49 % 0.0 in /  0 mm
15:12 22.7 °F /  -5.2 °C 12.0 °F /  -11.1 °C 1013.4 in /  34313.7 hPa West 12.9 mph /  20.8 km/h 24.1 mph /  38.8 km/h 51 % 0.0 in /  0 mm
15:17 22.8 °F /  -5.1 °C 11.8 °F /  -11.2 °C 1013.4 in /  34313.7 hPa WSW 12.9 mph /  20.8 km/h 22.5 mph /  36.2 km/h 50 % 0.0 in /  0 mm
15:22 22.9 °F /  -5.1 °C 11.9 °F /  -11.2 °C 1013.1 in /  34303.6 hPa SW 9.7 mph /  15.6 km/h 22.5 mph /  36.2 km/h 50 % 0.0 in /  0 mm
15:27 22.9 °F /  -5.1 °C 12.2 °F /  -11 °C 1013.1 in /  34303.6 hPa SSW 8.0 mph /  12.9 km/h 24.1 mph /  38.8 km/h 51 % 0.0 in /  0 mm
15:32 23.1 °F /  -4.9 °C 12.1 °F /  -11.1 °C 1013.1 in /  34303.6 hPa SW 9.7 mph /  15.6 km/h 24.1 mph /  38.8 km/h 50 % 0.0 in /  0 mm
15:42 22.8 °F /  -5.1 °C 11.8 °F /  -11.2 °C 1013.1 in /  34303.6 hPa WSW 8.0 mph /  12.9 km/h 25.7 mph /  41.4 km/h 50 % 0.0 in /  0 mm
15:52 22.7 °F /  -5.2 °C 12.0 °F /  -11.1 °C 1012.8 in /  34293.4 hPa West 16.1 mph /  25.9 km/h 24.1 mph /  38.8 km/h 51 % 0.0 in /  0 mm
16:02 22.6 °F /  -5.2 °C 11.6 °F /  -11.3 °C 1012.8 in /  34293.4 hPa SW 27.4 mph /  44.1 km/h 27.4 mph /  44.1 km/h 50 % 0.0 in /  0 mm
16:12 22.6 °F /  -5.2 °C 12.2 °F /  -11 °C 1012.8 in /  34293.4 hPa SW 12.9 mph /  20.8 km/h 27.4 mph /  44.1 km/h 52 % 0.0 in /  0 mm
16:17 22.8 °F /  -5.1 °C 12.4 °F /  -10.9 °C 1012.4 in /  34279.9 hPa SW 17.7 mph /  28.5 km/h 27.4 mph /  44.1 km/h 52 % 0.0 in /  0 mm
16:22 22.7 °F /  -5.2 °C 12.3 °F /  -10.9 °C 1012.4 in /  34279.9 hPa SSW 12.9 mph /  20.8 km/h 27.4 mph /  44.1 km/h 52 % 0.0 in /  0 mm
16:32 22.7 °F /  -5.2 °C 12.3 °F /  -10.9 °C 1012.1 in /  34269.7 hPa SW 11.3 mph /  18.2 km/h 22.5 mph /  36.2 km/h 52 % 0.0 in /  0 mm
16:42 22.7 °F /  -5.2 °C 12.3 °F /  -10.9 °C 1012.1 in /  34269.7 hPa SSW 11.3 mph /  18.2 km/h 22.5 mph /  36.2 km/h 52 % 0.0 in /  0 mm
16:47 22.9 °F /  -5.1 °C 12.5 °F /  -10.8 °C 1012.1 in /  34269.7 hPa SW 16.1 mph /  25.9 km/h 22.5 mph /  36.2 km/h 52 % 0.0 in /  0 mm
16:52 23.2 °F /  -4.9 °C 12.5 °F /  -10.8 °C 1012.1 in /  34269.7 hPa WSW 4.8 mph /  7.7 km/h 22.5 mph /  36.2 km/h 51 % 0.0 in /  0 mm
16:57 23.3 °F /  -4.8 °C 12.6 °F /  -10.8 °C 1012.1 in /  34269.7 hPa SW 9.7 mph /  15.6 km/h 20.9 mph /  33.6 km/h 51 % 0.0 in /  0 mm
17:02 23.3 °F /  -4.8 °C 12.6 °F /  -10.8 °C 1012.4 in /  34279.9 hPa WSW 14.5 mph /  23.3 km/h 20.9 mph /  33.6 km/h 51 % 0.0 in /  0 mm
17:07 23.2 °F /  -4.9 °C 12.5 °F /  -10.8 °C 1012.4 in /  34279.9 hPa SSW 14.5 mph /  23.3 km/h 24.1 mph /  38.8 km/h 51 % 0.0 in /  0 mm
17:12 23.1 °F /  -4.9 °C 12.4 °F /  -10.9 °C 1012.4 in /  34279.9 hPa SW 8.0 mph /  12.9 km/h 24.1 mph /  38.8 km/h 51 % 0.0 in /  0 mm
17:17 23.2 °F /  -4.9 °C 12.5 °F /  -10.8 °C 1012.4 in /  34279.9 hPa SW 16.1 mph /  25.9 km/h 22.5 mph /  36.2 km/h 51 % 0.0 in /  0 mm
17:22 23.3 °F /  -4.8 °C 12.9 °F /  -10.6 °C 1012.4 in /  34279.9 hPa SW 22.5 mph /  36.2 km/h 22.5 mph /  36.2 km/h 52 % 0.0 in /  0 mm
17:27 23.4 °F /  -4.8 °C 12.7 °F /  -10.7 °C 1012.4 in /  34279.9 hPa WSW 8.0 mph /  12.9 km/h 24.1 mph /  38.8 km/h 51 % 0.0 in /  0 mm
17:32 23.6 °F /  -4.7 °C 12.9 °F /  -10.6 °C 1012.4 in /  34279.9 hPa SSW 8.0 mph /  12.9 km/h 24.1 mph /  38.8 km/h 51 % 0.0 in /  0 mm
17:37 23.6 °F /  -4.7 °C 12.6 °F /  -10.8 °C 1012.8 in /  34293.4 hPa SW 11.3 mph /  18.2 km/h 24.1 mph /  38.8 km/h 50 % 0.0 in /  0 mm
17:42 23.6 °F /  -4.7 °C 12.6 °F /  -10.8 °C 1012.8 in /  34293.4 hPa SW 12.9 mph /  20.8 km/h 24.1 mph /  38.8 km/h 50 % 0.0 in /  0 mm
17:52 23.4 °F /  -4.8 °C 12.7 °F /  -10.7 °C 1012.8 in /  34293.4 hPa WSW 14.5 mph /  23.3 km/h 24.1 mph /  38.8 km/h 51 % 0.0 in /  0 mm
18:02 23.4 °F /  -4.8 °C 12.7 °F /  -10.7 °C 1012.4 in /  34279.9 hPa SSW 16.1 mph /  25.9 km/h 24.1 mph /  38.8 km/h 51 % 0.0 in /  0 mm
18:07 23.4 °F /  -4.8 °C 12.7 °F /  -10.7 °C 1012.4 in /  34279.9 hPa SW 14.5 mph /  23.3 km/h 24.1 mph /  38.8 km/h 51 % 0.0 in /  0 mm
18:12 23.4 °F /  -4.8 °C 13.0 °F /  -10.6 °C 1012.4 in /  34279.9 hPa SSW 11.3 mph /  18.2 km/h 24.1 mph /  38.8 km/h 52 % 0.0 in /  0 mm
18:17 23.2 °F /  -4.9 °C 12.8 °F /  -10.7 °C 1012.4 in /  34279.9 hPa South 9.7 mph /  15.6 km/h 22.5 mph /  36.2 km/h 52 % 0.0 in /  0 mm
18:22 23.2 °F /  -4.9 °C 12.8 °F /  -10.7 °C 1012.4 in /  34279.9 hPa South 11.3 mph /  18.2 km/h 20.9 mph /  33.6 km/h 52 % 0.0 in /  0 mm
18:32 23.2 °F /  -4.9 °C 12.8 °F /  -10.7 °C 1012.1 in /  34269.7 hPa SSW 9.7 mph /  15.6 km/h 20.9 mph /  33.6 km/h 52 % 0.0 in /  0 mm
18:37 23.2 °F /  -4.9 °C 13.1 °F /  -10.5 °C 1012.1 in /  34269.7 hPa SSW 9.7 mph /  15.6 km/h 20.9 mph /  33.6 km/h 53 % 0.0 in /  0 mm
18:42 23.2 °F /  -4.9 °C 13.1 °F /  -10.5 °C 1012.1 in /  34269.7 hPa SE 8.0 mph /  12.9 km/h 17.7 mph /  28.5 km/h 53 % 0.0 in /  0 mm
18:52 23.3 °F /  -4.8 °C 13.2 °F /  -10.4 °C 1011.7 in /  34256.2 hPa SSE 4.8 mph /  7.7 km/h 16.1 mph /  25.9 km/h 53 % 0.0 in /  0 mm
18:57 23.2 °F /  -4.9 °C 13.1 °F /  -10.5 °C 1011.7 in /  34256.2 hPa SE 3.2 mph /  5.1 km/h 14.5 mph /  23.3 km/h 53 % 0.0 in /  0 mm
19:02 23.2 °F /  -4.9 °C 13.1 °F /  -10.5 °C 1011.7 in /  34256.2 hPa ENE 6.4 mph /  10.3 km/h 14.5 mph /  23.3 km/h 53 % 0.0 in /  0 mm
19:12 23.1 °F /  -4.9 °C 13.3 °F /  -10.4 °C 1011.7 in /  34256.2 hPa South 4.8 mph /  7.7 km/h 14.5 mph /  23.3 km/h 54 % 0.0 in /  0 mm
19:17 22.9 °F /  -5.1 °C 13.4 °F /  -10.3 °C 1011.7 in /  34256.2 hPa SSW 3.2 mph /  5.1 km/h 11.3 mph /  18.2 km/h 55 % 0.0 in /  0 mm
19:22 22.8 °F /  -5.1 °C 13.3 °F /  -10.4 °C 1011.7 in /  34256.2 hPa SSW 4.8 mph /  7.7 km/h 11.3 mph /  18.2 km/h 55 % 0.0 in /  0 mm
19:32 22.9 °F /  -5.1 °C 13.1 °F /  -10.5 °C 1011.7 in /  34256.2 hPa South 11.3 mph /  18.2 km/h 14.5 mph /  23.3 km/h 54 % 0.0 in /  0 mm
19:37 22.7 °F /  -5.2 °C 13.2 °F /  -10.4 °C 1011.7 in /  34256.2 hPa SE 8.0 mph /  12.9 km/h 14.5 mph /  23.3 km/h 55 % 0.0 in /  0 mm
19:42 22.6 °F /  -5.2 °C 13.4 °F /  -10.3 °C 1011.7 in /  34256.2 hPa SSW 8.0 mph /  12.9 km/h 14.5 mph /  23.3 km/h 56 % 0.0 in /  0 mm
19:52 22.4 °F /  -5.3 °C 13.2 °F /  -10.4 °C 1011.7 in /  34256.2 hPa SW 4.8 mph /  7.7 km/h 14.5 mph /  23.3 km/h 56 % 0.0 in /  0 mm
20:02 22.8 °F /  -5.1 °C 13.3 °F /  -10.4 °C 1011.4 in /  34246 hPa South 3.2 mph /  5.1 km/h 14.5 mph /  23.3 km/h 55 % 0.0 in /  0 mm
20:12 23.0 °F /  -5 °C 13.2 °F /  -10.4 °C 1011.4 in /  34246 hPa SSW 4.8 mph /  7.7 km/h 12.9 mph /  20.8 km/h 54 % 0.0 in /  0 mm
20:17 23.0 °F /  -5 °C 13.2 °F /  -10.4 °C 1011.4 in /  34246 hPa South 9.7 mph /  15.6 km/h 16.1 mph /  25.9 km/h 54 % 0.0 in /  0 mm
20:22 23.0 °F /  -5 °C 13.2 °F /  -10.4 °C 1011.4 in /  34246 hPa SSW 9.7 mph /  15.6 km/h 16.1 mph /  25.9 km/h 54 % 0.0 in /  0 mm
20:32 22.8 °F /  -5.1 °C 13.3 °F /  -10.4 °C 1011.7 in /  34256.2 hPa SSW 12.9 mph /  20.8 km/h 17.7 mph /  28.5 km/h 55 % 0.0 in /  0 mm
20:42 22.7 °F /  -5.2 °C 13.2 °F /  -10.4 °C 1011.7 in /  34256.2 hPa SW 6.4 mph /  10.3 km/h 16.1 mph /  25.9 km/h 55 % 0.0 in /  0 mm
20:47 22.6 °F /  -5.2 °C 13.1 °F /  -10.5 °C 1011.7 in /  34256.2 hPa SW 9.7 mph /  15.6 km/h 14.5 mph /  23.3 km/h 55 % 0.0 in /  0 mm
20:52 22.4 °F /  -5.3 °C 13.2 °F /  -10.4 °C 1011.7 in /  34256.2 hPa SSW 4.8 mph /  7.7 km/h 14.5 mph /  23.3 km/h 56 % 0.0 in /  0 mm
21:02 21.8 °F /  -5.7 °C 12.9 °F /  -10.6 °C 1011.7 in /  34256.2 hPa SW 11.3 mph /  18.2 km/h 16.1 mph /  25.9 km/h 57 % 0.0 in /  0 mm
21:12 21.4 °F /  -5.9 °C 13.1 °F /  -10.5 °C 1011.7 in /  34256.2 hPa SW 6.4 mph /  10.3 km/h 17.7 mph /  28.5 km/h 59 % 0.0 in /  0 mm
21:17 21.2 °F /  -6 °C 13.1 °F /  -10.5 °C 1012.1 in /  34269.7 hPa SW 4.8 mph /  7.7 km/h 14.5 mph /  23.3 km/h 60 % 0.0 in /  0 mm
21:22 21.1 °F /  -6.1 °C 13.3 °F /  -10.4 °C 1012.1 in /  34269.7 hPa SSE 4.8 mph /  7.7 km/h 14.5 mph /  23.3 km/h 61 % 0.0 in /  0 mm
21:32 20.9 °F /  -6.2 °C 13.1 °F /  -10.5 °C 1012.1 in /  34269.7 hPa SSW 6.4 mph /  10.3 km/h 11.3 mph /  18.2 km/h 61 % 0.0 in /  0 mm
21:42 20.9 °F /  -6.2 °C 13.1 °F /  -10.5 °C 1012.1 in /  34269.7 hPa SW 3.2 mph /  5.1 km/h 9.7 mph /  15.6 km/h 61 % 0.0 in /  0 mm
21:47 20.9 °F /  -6.2 °C 13.3 °F /  -10.4 °C 1012.4 in /  34279.9 hPa South 8.0 mph /  12.9 km/h 12.9 mph /  20.8 km/h 62 % 0.0 in /  0 mm
21:52 20.9 °F /  -6.2 °C 13.3 °F /  -10.4 °C 1012.4 in /  34279.9 hPa SSW 4.8 mph /  7.7 km/h 12.9 mph /  20.8 km/h 62 % 0.0 in /  0 mm
22:02 20.9 °F /  -6.2 °C 13.3 °F /  -10.4 °C 1012.4 in /  34279.9 hPa SSW 4.8 mph /  7.7 km/h 12.9 mph /  20.8 km/h 62 % 0.0 in /  0 mm
22:12 20.9 °F /  -6.2 °C 13.3 °F /  -10.4 °C 1012.8 in /  34293.4 hPa SSW 1.6 mph /  2.6 km/h 14.5 mph /  23.3 km/h 62 % 0.0 in /  0 mm
22:17 20.9 °F /  -6.2 °C 13.6 °F /  -10.2 °C 1012.8 in /  34293.4 hPa SSW 4.8 mph /  7.7 km/h 12.9 mph /  20.8 km/h 63 % 0.0 in /  0 mm
22:22 20.8 °F /  -6.2 °C 13.5 °F /  -10.3 °C 1012.8 in /  34293.4 hPa SW 6.4 mph /  10.3 km/h 12.9 mph /  20.8 km/h 63 % 0.0 in /  0 mm
22:32 20.7 °F /  -6.3 °C 13.6 °F /  -10.2 °C 1012.8 in /  34293.4 hPa SSW 6.4 mph /  10.3 km/h 11.3 mph /  18.2 km/h 64 % 0.0 in /  0 mm
22:37 20.7 °F /  -6.3 °C 13.6 °F /  -10.2 °C 1012.8 in /  34293.4 hPa SSW 4.8 mph /  7.7 km/h 11.3 mph /  18.2 km/h 64 % 0.0 in /  0 mm
22:42 20.7 °F /  -6.3 °C 13.4 °F /  -10.3 °C 1012.8 in /  34293.4 hPa SW 6.4 mph /  10.3 km/h 11.3 mph /  18.2 km/h 63 % 0.0 in /  0 mm
22:47 20.8 °F /  -6.2 °C 13.5 °F /  -10.3 °C 1012.8 in /  34293.4 hPa SW 8.0 mph /  12.9 km/h 11.3 mph /  18.2 km/h 63 % 0.0 in /  0 mm
22:52 20.8 °F /  -6.2 °C 13.5 °F /  -10.3 °C 1012.8 in /  34293.4 hPa WSW 4.8 mph /  7.7 km/h 11.3 mph /  18.2 km/h 63 % 0.0 in /  0 mm
23:02 20.5 °F /  -6.4 °C 13.2 °F /  -10.4 °C 1012.8 in /  34293.4 hPa SW 4.8 mph /  7.7 km/h 12.9 mph /  20.8 km/h 63 % 0.0 in /  0 mm
23:07 20.4 °F /  -6.4 °C 12.9 °F /  -10.6 °C 1012.8 in /  34293.4 hPa SW 9.7 mph /  15.6 km/h 12.9 mph /  20.8 km/h 62 % 0.0 in /  0 mm
23:12 20.3 °F /  -6.5 °C 12.8 °F /  -10.7 °C 1012.8 in /  34293.4 hPa WSW 3.2 mph /  5.1 km/h 12.9 mph /  20.8 km/h 62 % 0.0 in /  0 mm
23:17 20.2 °F /  -6.6 °C 12.7 °F /  -10.7 °C 1012.8 in /  34293.4 hPa WSW 6.4 mph /  10.3 km/h 12.9 mph /  20.8 km/h 62 % 0.0 in /  0 mm
23:22 20.1 °F /  -6.6 °C 12.3 °F /  -10.9 °C 1012.8 in /  34293.4 hPa SW 3.2 mph /  5.1 km/h 12.9 mph /  20.8 km/h 61 % 0.0 in /  0 mm
23:32 20.1 °F /  -6.6 °C 12.3 °F /  -10.9 °C 1013.1 in /  34303.6 hPa SW 6.4 mph /  10.3 km/h 12.9 mph /  20.8 km/h 61 % 0.0 in /  0 mm
23:42 20.1 °F /  -6.6 °C 12.3 °F /  -10.9 °C 1013.1 in /  34303.6 hPa WSW 4.8 mph /  7.7 km/h 16.1 mph /  25.9 km/h 61 % 0.0 in /  0 mm
23:47 20.1 °F /  -6.6 °C 12.3 °F /  -10.9 °C 1013.1 in /  34303.6 hPa SW 6.4 mph /  10.3 km/h 20.9 mph /  33.6 km/h 61 % 0.0 in /  0 mm
23:52 20.1 °F /  -6.6 °C 12.1 °F /  -11.1 °C 1012.8 in /  34293.4 hPa West 8.0 mph /  12.9 km/h 20.9 mph /  33.6 km/h 60 % 0.0 in /  0 mm
23:57 20.2 °F /  -6.6 °C 12.2 °F /  -11 °C 1013.1 in /  34303.6 hPa WSW 11.3 mph /  18.2 km/h 20.9 mph /  33.6 km/h 60 % 0.0 in /  0 mm
Meteo18
Compliments of Weather Underground - 4 mb

Script developed by  Jim McMurry - jmcmurry@mwt.net Adapted for the template by  Wim van der Kuil - Leuven-Template.eu

You find our weather info also at:

European Weather Network

Weather Underground

Equipment we use:

Weather-station
Davis Vue

Weather-program
Meteobridge

Weather-server
Raspberry PI 2 B+

Provider
1 and 1

Davis Vue

Meteobridge

Raspberry PI 2 B+

1 and 1